sensor_id;sensor_type;location;lat;lon;timestamp;pressure;altitude;pressure_sealevel;temperature;humidity
4392;BME280;2210;51.938;8.488;2023-03-25T00:00:38;99184.81;;;8.82;100.00
4392;BME280;2210;51.938;8.488;2023-03-25T00:04:38;99176.09;;;8.90;100.00
4392;BME280;2210;51.938;8.488;2023-03-25T00:08:40;99188.28;;;9.00;100.00
4392;BME280;2210;51.938;8.488;2023-03-25T00:12:43;99183.66;;;9.05;100.00
4392;BME280;2210;51.938;8.488;2023-03-25T00:16:44;99181.53;;;9.13;100.00
4392;BME280;2210;51.938;8.488;2023-03-25T00:20:54;99182.66;;;9.17;100.00
4392;BME280;2210;51.938;8.488;2023-03-25T00:24:54;99177.78;;;9.24;100.00
4392;BME280;2210;51.938;8.488;2023-03-25T00:29:08;99174.56;;;9.32;100.00
4392;BME280;2210;51.938;8.488;2023-03-25T00:33:17;99170.97;;;9.32;100.00
4392;BME280;2210;51.938;8.488;2023-03-25T00:37:18;99172.66;;;9.38;100.00
4392;BME280;2210;51.938;8.488;2023-03-25T00:41:22;99172.41;;;9.39;100.00
4392;BME280;2210;51.938;8.488;2023-03-25T00:45:24;99182.81;;;9.32;100.00
4392;BME280;2210;51.938;8.488;2023-03-25T00:49:24;99178.94;;;9.28;100.00
4392;BME280;2210;51.938;8.488;2023-03-25T00:53:30;99178.88;;;9.23;100.00
4392;BME280;2210;51.938;8.488;2023-03-25T00:57:33;99183.53;;;9.22;100.00
4392;BME280;2210;51.938;8.488;2023-03-25T01:01:37;99180.78;;;9.22;100.00
4392;BME280;2210;51.938;8.488;2023-03-25T01:05:38;99175.53;;;9.21;100.00
4392;BME280;2210;51.938;8.488;2023-03-25T01:09:41;99179.41;;;9.20;100.00
4392;BME280;2210;51.938;8.488;2023-03-25T01:13:44;99188.47;;;9.20;100.00
4392;BME280;2210;51.938;8.488;2023-03-25T01:17:45;99181.31;;;9.19;100.00
4392;BME280;2210;51.938;8.488;2023-03-25T01:21:45;99182.66;;;9.17;100.00
4392;BME280;2210;51.938;8.488;2023-03-25T01:25:45;99175.00;;;9.19;100.00
4392;BME280;2210;51.938;8.488;2023-03-25T01:29:49;99166.41;;;9.15;100.00
4392;BME280;2210;51.938;8.488;2023-03-25T01:33:49;99179.91;;;9.17;100.00
4392;BME280;2210;51.938;8.488;2023-03-25T01:37:52;99178.28;;;9.16;100.00
4392;BME280;2210;51.938;8.488;2023-03-25T01:41:56;99179.34;;;9.15;100.00
4392;BME280;2210;51.938;8.488;2023-03-25T01:45:56;99176.59;;;9.15;100.00
4392;BME280;2210;51.938;8.488;2023-03-25T01:50:03;99174.94;;;9.14;100.00
4392;BME280;2210;51.938;8.488;2023-03-25T01:54:07;99168.31;;;9.09;100.00
4392;BME280;2210;51.938;8.488;2023-03-25T01:58:10;99169.97;;;9.10;100.00
4392;BME280;2210;51.938;8.488;2023-03-25T02:02:12;99168.31;;;9.09;100.00
4392;BME280;2210;51.938;8.488;2023-03-25T02:06:19;99166.63;;;9.08;100.00
4392;BME280;2210;51.938;8.488;2023-03-25T02:10:24;99158.66;;;9.07;100.00
4392;BME280;2210;51.938;8.488;2023-03-25T02:14:28;99159.47;;;9.07;100.00
4392;BME280;2210;51.938;8.488;2023-03-25T02:27:08;99157.84;;;9.06;100.00
4392;BME280;2210;51.938;8.488;2023-03-25T02:40:08;99151.22;;;9.02;100.00
4392;BME280;2210;51.938;8.488;2023-03-25T02:44:35;99150.34;;;9.02;100.00
4392;BME280;2210;51.938;8.488;2023-03-25T02:48:41;99141.56;;;9.00;100.00
4392;BME280;2210;51.938;8.488;2023-03-25T02:52:54;99143.47;;;8.99;100.00
4392;BME280;2210;51.938;8.488;2023-03-25T02:56:56;99133.00;;;8.96;100.00
4392;BME280;2210;51.938;8.488;2023-03-25T03:00:58;99142.06;;;8.97;100.00
4392;BME280;2210;51.938;8.488;2023-03-25T03:05:01;99151.56;;;8.84;100.00
4392;BME280;2210;51.938;8.488;2023-03-25T03:18:17;99141.88;;;8.49;100.00
4392;BME280;2210;51.938;8.488;2023-03-25T03:22:49;99144.53;;;8.43;100.00
4392;BME280;2210;51.938;8.488;2023-03-25T03:31:19;99139.03;;;8.43;100.00
4392;BME280;2210;51.938;8.488;2023-03-25T03:35:34;99143.69;;;8.43;100.00
4392;BME280;2210;51.938;8.488;2023-03-25T03:39:37;99128.22;;;8.32;100.00
4392;BME280;2210;51.938;8.488;2023-03-25T03:43:51;99131.78;;;8.32;100.00
4392;BME280;2210;51.938;8.488;2023-03-25T03:47:54;99136.00;;;8.40;100.00
4392;BME280;2210;51.938;8.488;2023-03-25T03:52:25;99140.00;;;8.32;100.00
4392;BME280;2210;51.938;8.488;2023-03-25T03:56:44;99136.13;;;8.28;100.00
4392;BME280;2210;51.938;8.488;2023-03-25T04:01:03;99136.13;;;8.28;100.00
4392;BME280;2210;51.938;8.488;2023-03-25T04:05:16;99144.91;;;8.30;100.00
4392;BME280;2210;51.938;8.488;2023-03-25T04:13:36;99140.59;;;8.34;100.00
4392;BME280;2210;51.938;8.488;2023-03-25T04:17:38;99140.06;;;8.37;100.00
4392;BME280;2210;51.938;8.488;2023-03-25T04:21:38;99141.47;;;8.40;100.00
4392;BME280;2210;51.938;8.488;2023-03-25T04:25:44;99154.34;;;8.39;100.00
4392;BME280;2210;51.938;8.488;2023-03-25T04:29:55;99149.72;;;8.40;100.00
4392;BME280;2210;51.938;8.488;2023-03-25T04:33:57;99148.31;;;8.37;100.00
4392;BME280;2210;51.938;8.488;2023-03-25T04:37:58;99139.56;;;8.40;100.00
4392;BME280;2210;51.938;8.488;2023-03-25T04:42:01;99147.06;;;8.45;100.00
4392;BME280;2210;51.938;8.488;2023-03-25T04:46:02;99142.13;;;8.47;100.00
4392;BME280;2210;51.938;8.488;2023-03-25T04:50:03;99145.69;;;8.48;100.00
4392;BME280;2210;51.938;8.488;2023-03-25T04:54:03;99147.38;;;8.49;100.00
4392;BME280;2210;51.938;8.488;2023-03-25T04:58:03;99142.19;;;8.52;100.00
4392;BME280;2210;51.938;8.488;2023-03-25T05:02:10;99141.06;;;8.48;100.00
4392;BME280;2210;51.938;8.488;2023-03-25T05:06:16;99137.22;;;8.49;100.00
4392;BME280;2210;51.938;8.488;2023-03-25T05:10:19;99145.19;;;8.51;100.00
4392;BME280;2210;51.938;8.488;2023-03-25T05:14:20;99135.03;;;8.51;100.00
4392;BME280;2210;51.938;8.488;2023-03-25T05:18:21;99147.97;;;8.56;100.00
4392;BME280;2210;51.938;8.488;2023-03-25T05:22:24;99144.16;;;8.57;100.00
4392;BME280;2210;51.938;8.488;2023-03-25T05:26:40;99144.94;;;8.52;100.00
4392;BME280;2210;51.938;8.488;2023-03-25T05:30:43;99146.34;;;8.55;100.00
4392;BME280;2210;51.938;8.488;2023-03-25T05:34:45;99154.00;;;8.53;100.00
4392;BME280;2210;51.938;8.488;2023-03-25T05:38:52;99151.78;;;8.50;100.00
4392;BME280;2210;51.938;8.488;2023-03-25T05:43:05;99148.50;;;8.53;100.00
4392;BME280;2210;51.938;8.488;2023-03-25T05:47:05;99155.59;;;8.49;100.00
4392;BME280;2210;51.938;8.488;2023-03-25T05:51:15;99151.50;;;8.51;100.00
4392;BME280;2210;51.938;8.488;2023-03-25T05:55:34;99160.84;;;8.50;100.00
4392;BME280;2210;51.938;8.488;2023-03-25T05:59:35;99158.94;;;8.51;100.00
4392;BME280;2210;51.938;8.488;2023-03-25T06:03:44;99169.06;;;8.50;100.00
4392;BME280;2210;51.938;8.488;2023-03-25T06:07:45;99174.00;;;8.48;100.00
4392;BME280;2210;51.938;8.488;2023-03-25T06:11:46;99166.47;;;8.38;100.00
4392;BME280;2210;51.938;8.488;2023-03-25T06:15:52;99159.38;;;8.42;100.00
4392;BME280;2210;51.938;8.488;2023-03-25T06:20:04;99160.69;;;8.40;100.00
4392;BME280;2210;51.938;8.488;2023-03-25T06:24:12;99165.66;;;8.43;100.00
4392;BME280;2210;51.938;8.488;2023-03-25T06:28:13;99165.19;;;8.46;100.00
4392;BME280;2210;51.938;8.488;2023-03-25T06:32:13;99179.03;;;8.56;100.00
4392;BME280;2210;51.938;8.488;2023-03-25T06:36:16;99176.63;;;8.60;100.00
4392;BME280;2210;51.938;8.488;2023-03-25T06:40:20;99174.09;;;8.58;100.00
4392;BME280;2210;51.938;8.488;2023-03-25T06:44:21;99173.03;;;8.59;100.00
4392;BME280;2210;51.938;8.488;2023-03-25T06:48:21;99173.28;;;8.58;100.00
4392;BME280;2210;51.938;8.488;2023-03-25T06:52:22;99184.34;;;8.63;100.00
4392;BME280;2210;51.938;8.488;2023-03-25T06:56:22;99179.41;;;8.65;100.00
4392;BME280;2210;51.938;8.488;2023-03-25T07:00:25;99181.13;;;8.71;100.00
4392;BME280;2210;51.938;8.488;2023-03-25T07:04:33;99186.69;;;8.76;100.00
4392;BME280;2210;51.938;8.488;2023-03-25T07:08:33;99167.72;;;8.75;100.00
4392;BME280;2210;51.938;8.488;2023-03-25T07:12:34;99175.03;;;8.69;100.00
4392;BME280;2210;51.938;8.488;2023-03-25T07:16:34;99166.72;;;8.59;100.00
4392;BME280;2210;51.938;8.488;2023-03-25T07:20:38;99172.16;;;8.54;100.00
4392;BME280;2210;51.938;8.488;2023-03-25T07:24:44;99172.25;;;8.42;100.00
4392;BME280;2210;51.938;8.488;2023-03-25T07:28:48;99173.56;;;8.34;100.00
4392;BME280;2210;51.938;8.488;2023-03-25T07:32:51;99170.75;;;8.29;100.00
4392;BME280;2210;51.938;8.488;2023-03-25T07:36:51;99175.00;;;8.20;100.00
4392;BME280;2210;51.938;8.488;2023-03-25T07:40:51;99175.06;;;8.25;100.00
4392;BME280;2210;51.938;8.488;2023-03-25T07:44:54;99180.56;;;8.25;100.00
4392;BME280;2210;51.938;8.488;2023-03-25T07:49:04;99183.31;;;8.25;100.00
4392;BME280;2210;51.938;8.488;2023-03-25T07:53:04;99178.91;;;8.24;100.00
4392;BME280;2210;51.938;8.488;2023-03-25T07:57:13;99166.06;;;8.30;100.00
4392;BME280;2210;51.938;8.488;2023-03-25T08:01:14;99171.88;;;8.33;100.00
4392;BME280;2210;51.938;8.488;2023-03-25T08:05:14;99166.69;;;8.37;100.00
4392;BME280;2210;51.938;8.488;2023-03-25T08:09:28;99177.03;;;8.47;100.00
4392;BME280;2210;51.938;8.488;2023-03-25T08:13:29;99175.97;;;8.53;100.00
4392;BME280;2210;51.938;8.488;2023-03-25T08:17:36;99194.81;;;8.66;100.00
4392;BME280;2210;51.938;8.488;2023-03-25T08:21:37;99186.69;;;8.76;100.00
4392;BME280;2210;51.938;8.488;2023-03-25T08:25:40;99192.38;;;8.97;100.00
4392;BME280;2210;51.938;8.488;2023-03-25T08:29:40;99189.59;;;9.24;100.00
4392;BME280;2210;51.938;8.488;2023-03-25T08:33:41;99187.69;;;9.25;100.00
4392;BME280;2210;51.938;8.488;2023-03-25T08:37:51;99189.06;;;9.27;100.00
4392;BME280;2210;51.938;8.488;2023-03-25T08:41:54;99188.34;;;9.37;100.00
4392;BME280;2210;51.938;8.488;2023-03-25T08:46:01;99177.38;;;9.42;100.00
4392;BME280;2210;51.938;8.488;2023-03-25T08:50:01;99184.53;;;9.43;100.00
4392;BME280;2210;51.938;8.488;2023-03-25T08:54:01;99192.53;;;9.45;100.00
4392;BME280;2210;51.938;8.488;2023-03-25T08:58:05;99175.19;;;9.44;100.00
4392;BME280;2210;51.938;8.488;2023-03-25T09:02:09;99201.34;;;9.47;98.29
4392;BME280;2210;51.938;8.488;2023-03-25T09:06:09;99197.25;;;9.50;98.70
4392;BME280;2210;51.938;8.488;2023-03-25T09:10:09;99205.28;;;9.56;98.09
4392;BME280;2210;51.938;8.488;2023-03-25T09:14:15;99208.69;;;9.74;95.68
4392;BME280;2210;51.938;8.488;2023-03-25T09:18:15;99219.59;;;9.96;95.30
4392;BME280;2210;51.938;8.488;2023-03-25T09:22:18;99209.56;;;10.27;87.11
4392;BME280;2210;51.938;8.488;2023-03-25T09:26:19;99209.03;;;10.30;84.09
4392;BME280;2210;51.938;8.488;2023-03-25T09:30:22;99203.44;;;10.73;83.53
4392;BME280;2210;51.938;8.488;2023-03-25T09:34:23;99207.81;;;10.64;82.41
4392;BME280;2210;51.938;8.488;2023-03-25T09:38:32;99201.69;;;10.46;81.69
4392;BME280;2210;51.938;8.488;2023-03-25T09:47:00;99201.50;;;10.16;82.72
4392;BME280;2210;51.938;8.488;2023-03-25T09:51:04;99199.34;;;10.18;83.17
4392;BME280;2210;51.938;8.488;2023-03-25T09:55:08;99201.00;;;10.24;82.08
4392;BME280;2210;51.938;8.488;2023-03-25T09:59:14;99198.25;;;10.24;82.60
4392;BME280;2210;51.938;8.488;2023-03-25T10:03:24;99203.38;;;10.05;84.66
4392;BME280;2210;51.938;8.488;2023-03-25T10:07:39;99208.69;;;10.17;86.09
4392;BME280;2210;51.938;8.488;2023-03-25T10:12:08;99218.66;;;10.23;86.17
4392;BME280;2210;51.938;8.488;2023-03-25T10:25:24;99197.44;;;10.23;87.19
4392;BME280;2210;51.938;8.488;2023-03-25T10:29:53;99212.50;;;10.58;85.41
4392;BME280;2210;51.938;8.488;2023-03-25T10:34:11;99207.53;;;10.55;86.25
4392;BME280;2210;51.938;8.488;2023-03-25T10:38:20;99196.75;;;10.54;85.24
4392;BME280;2210;51.938;8.488;2023-03-25T10:42:31;99218.22;;;10.46;85.05
4392;BME280;2210;51.938;8.488;2023-03-25T10:46:45;99210.56;;;10.59;86.60
4392;BME280;2210;51.938;8.488;2023-03-25T10:51:12;99206.75;;;10.70;88.21
4392;BME280;2210;51.938;8.488;2023-03-25T10:55:27;99211.91;;;10.56;87.38
4392;BME280;2210;51.938;8.488;2023-03-25T11:00:07;99213.88;;;10.61;86.76
4392;BME280;2210;51.938;8.488;2023-03-25T11:04:18;99213.41;;;10.90;87.50
4392;BME280;2210;51.938;8.488;2023-03-25T11:08:26;99202.94;;;11.02;83.98
4392;BME280;2210;51.938;8.488;2023-03-25T11:12:30;99203.22;;;10.95;84.63
4392;BME280;2210;51.938;8.488;2023-03-25T11:16:32;99202.94;;;10.87;84.34
4392;BME280;2210;51.938;8.488;2023-03-25T11:20:38;99217.72;;;10.60;90.94
4392;BME280;2210;51.938;8.488;2023-03-25T11:24:42;99213.63;;;10.73;96.60
4392;BME280;2210;51.938;8.488;2023-03-25T11:28:44;99208.50;;;11.48;93.28
4392;BME280;2210;51.938;8.488;2023-03-25T11:32:58;99214.03;;;11.43;87.45
4392;BME280;2210;51.938;8.488;2023-03-25T11:37:06;99204.34;;;11.72;86.94
4392;BME280;2210;51.938;8.488;2023-03-25T11:41:08;99211.75;;;12.18;82.58
4392;BME280;2210;51.938;8.488;2023-03-25T11:45:33;99205.34;;;12.43;78.57
4392;BME280;2210;51.938;8.488;2023-03-25T11:49:36;99196.78;;;12.39;80.61
4392;BME280;2210;51.938;8.488;2023-03-25T11:53:43;99207.66;;;12.00;79.02
4392;BME280;2210;51.938;8.488;2023-03-25T11:57:45;99199.09;;;11.86;81.04
4392;BME280;2210;51.938;8.488;2023-03-25T12:01:49;99197.44;;;11.69;82.37
4392;BME280;2210;51.938;8.488;2023-03-25T12:10:41;99191.38;;;11.10;83.60
4392;BME280;2210;51.938;8.488;2023-03-25T12:14:51;99192.19;;;10.95;86.63
4392;BME280;2210;51.938;8.488;2023-03-25T12:19:22;99182.00;;;10.96;87.10
4392;BME280;2210;51.938;8.488;2023-03-25T12:23:39;99181.47;;;11.45;85.78
4392;BME280;2210;51.938;8.488;2023-03-25T12:27:58;99155.53;;;11.52;82.30
4392;BME280;2210;51.938;8.488;2023-03-25T12:33:05;99161.88;;;11.32;82.19
4392;BME280;2210;51.938;8.488;2023-03-25T12:36:58;99176.78;;;11.10;83.26
4392;BME280;2210;51.938;8.488;2023-03-25T12:41:19;99167.91;;;10.92;88.82
4392;BME280;2210;51.938;8.488;2023-03-25T12:45:37;99166.53;;;10.74;90.69
4392;BME280;2210;51.938;8.488;2023-03-25T12:54:02;99157.66;;;10.67;90.55
4392;BME280;2210;51.938;8.488;2023-03-25T13:03:14;99194.59;;;10.66;87.84
4392;BME280;2210;51.938;8.488;2023-03-25T13:07:21;99208.53;;;10.39;99.86
4392;BME280;2210;51.938;8.488;2023-03-25T13:11:30;99213.00;;;10.02;100.00
4392;BME280;2210;51.938;8.488;2023-03-25T13:15:38;99222.84;;;9.88;100.00
4392;BME280;2210;51.938;8.488;2023-03-25T13:19:40;99217.75;;;9.69;100.00
4392;BME280;2210;51.938;8.488;2023-03-25T13:23:45;99226.00;;;9.69;100.00
4392;BME280;2210;51.938;8.488;2023-03-25T13:27:48;99212.75;;;9.61;100.00
4392;BME280;2210;51.938;8.488;2023-03-25T13:31:51;99187.94;;;9.56;100.00
4392;BME280;2210;51.938;8.488;2023-03-25T13:44:16;99195.63;;;9.54;100.00
4392;BME280;2210;51.938;8.488;2023-03-25T13:48:21;99177.69;;;9.84;100.00
4392;BME280;2210;51.938;8.488;2023-03-25T13:52:32;99156.13;;;10.23;100.00
4392;BME280;2210;51.938;8.488;2023-03-25T14:14:19;99168.19;;;10.12;100.00
4392;BME280;2210;51.938;8.488;2023-03-25T14:18:21;99165.19;;;10.19;100.00
4392;BME280;2210;51.938;8.488;2023-03-25T14:22:25;99155.03;;;10.24;100.00
4392;BME280;2210;51.938;8.488;2023-03-25T14:26:26;99170.13;;;10.17;100.00
4392;BME280;2210;51.938;8.488;2023-03-25T14:30:31;99179.44;;;10.05;100.00
4392;BME280;2210;51.938;8.488;2023-03-25T14:34:32;99185.84;;;9.73;100.00
4392;BME280;2210;51.938;8.488;2023-03-25T14:38:52;99178.69;;;9.67;100.00
4392;BME280;2210;51.938;8.488;2023-03-25T14:42:57;99195.91;;;9.52;100.00
4392;BME280;2210;51.938;8.488;2023-03-25T14:55:41;99169.09;;;9.37;100.00
4392;BME280;2210;51.938;8.488;2023-03-25T14:59:45;99177.38;;;9.42;100.00
4392;BME280;2210;51.938;8.488;2023-03-25T15:03:47;99180.09;;;9.37;100.00
4392;BME280;2210;51.938;8.488;2023-03-25T15:07:52;99198.47;;;9.32;100.00
4392;BME280;2210;51.938;8.488;2023-03-25T15:16:16;99185.19;;;9.23;100.00
4392;BME280;2210;51.938;8.488;2023-03-25T15:24:25;99180.47;;;9.51;100.00
4392;BME280;2210;51.938;8.488;2023-03-25T15:28:44;99176.47;;;9.69;100.00
4392;BME280;2210;51.938;8.488;2023-03-25T15:33:03;99169.31;;;9.68;100.00
4392;BME280;2210;51.938;8.488;2023-03-25T15:37:28;99175.88;;;9.62;100.00
4392;BME280;2210;51.938;8.488;2023-03-25T15:55:04;99192.16;;;9.31;100.00
4392;BME280;2210;51.938;8.488;2023-03-25T16:03:30;99185.13;;;9.45;100.00
4392;BME280;2210;51.938;8.488;2023-03-25T16:07:34;99191.88;;;9.33;100.00
4392;BME280;2210;51.938;8.488;2023-03-25T16:11:41;99198.13;;;9.23;100.00
4392;BME280;2210;51.938;8.488;2023-03-25T16:15:43;99196.41;;;9.17;100.00
4392;BME280;2210;51.938;8.488;2023-03-25T16:19:51;99195.78;;;9.09;100.00
4392;BME280;2210;51.938;8.488;2023-03-25T16:23:59;99196.41;;;9.17;100.00
4392;BME280;2210;51.938;8.488;2023-03-25T16:28:04;99198.88;;;9.13;100.00
4392;BME280;2210;51.938;8.488;2023-03-25T16:32:05;99193.38;;;9.13;100.00
4392;BME280;2210;51.938;8.488;2023-03-25T16:36:07;99186.53;;;9.21;100.00
4392;BME280;2210;51.938;8.488;2023-03-25T16:40:13;99194.25;;;9.19;100.00
4392;BME280;2210;51.938;8.488;2023-03-25T16:44:21;99192.34;;;9.24;100.00
4392;BME280;2210;51.938;8.488;2023-03-25T16:48:36;99200.88;;;9.23;100.00
4392;BME280;2210;51.938;8.488;2023-03-25T16:52:38;99227.84;;;9.26;100.00
4392;BME280;2210;51.938;8.488;2023-03-25T16:56:42;99276.88;;;9.07;100.00
4392;BME280;2210;51.938;8.488;2023-03-25T17:00:42;99254.03;;;8.79;100.00
4392;BME280;2210;51.938;8.488;2023-03-25T17:04:42;99237.22;;;8.75;100.00
4392;BME280;2210;51.938;8.488;2023-03-25T17:08:43;99244.66;;;8.75;100.00
4392;BME280;2210;51.938;8.488;2023-03-25T17:12:50;99237.75;;;8.72;100.00
4392;BME280;2210;51.938;8.488;2023-03-25T17:16:53;99244.00;;;8.68;100.00
4392;BME280;2210;51.938;8.488;2023-03-25T17:20:55;99248.16;;;8.70;100.00
4392;BME280;2210;51.938;8.488;2023-03-25T17:25:12;99262.97;;;8.69;100.00
4392;BME280;2210;51.938;8.488;2023-03-25T17:29:14;99266.81;;;8.68;100.00
4392;BME280;2210;51.938;8.488;2023-03-25T17:33:32;99276.16;;;8.67;100.00
4392;BME280;2210;51.938;8.488;2023-03-25T17:37:33;99275.53;;;8.60;100.00
4392;BME280;2210;51.938;8.488;2023-03-25T17:46:22;99289.00;;;8.62;100.00
4392;BME280;2210;51.938;8.488;2023-03-25T17:50:27;99328.19;;;8.57;100.00
4392;BME280;2210;51.938;8.488;2023-03-25T17:54:27;99315.88;;;8.59;100.00
4392;BME280;2210;51.938;8.488;2023-03-25T17:58:27;99341.84;;;8.52;100.00
4392;BME280;2210;51.938;8.488;2023-03-25T18:02:28;99336.56;;;8.45;100.00
4392;BME280;2210;51.938;8.488;2023-03-25T18:06:31;99344.63;;;8.35;100.00
4392;BME280;2210;51.938;8.488;2023-03-25T18:10:41;99329.66;;;8.25;100.00
4392;BME280;2210;51.938;8.488;2023-03-25T18:14:45;99331.63;;;8.30;100.00
4392;BME280;2210;51.938;8.488;2023-03-25T18:18:46;99359.59;;;8.27;100.00
4392;BME280;2210;51.938;8.488;2023-03-25T18:22:46;99354.63;;;8.07;100.00
4392;BME280;2210;51.938;8.488;2023-03-25T18:26:50;99348.31;;;8.06;100.00
4392;BME280;2210;51.938;8.488;2023-03-25T18:30:55;99347.81;;;8.09;100.00
4392;BME280;2210;51.938;8.488;2023-03-25T18:34:55;99341.66;;;8.02;100.00
4392;BME280;2210;51.938;8.488;2023-03-25T18:38:55;99347.66;;;7.99;100.00
4392;BME280;2210;51.938;8.488;2023-03-25T18:42:56;99348.81;;;7.86;100.00
4392;BME280;2210;51.938;8.488;2023-03-25T18:46:59;99349.13;;;7.90;100.00
4392;BME280;2210;51.938;8.488;2023-03-25T18:50:59;99358.75;;;7.75;100.00
4392;BME280;2210;51.938;8.488;2023-03-25T18:54:59;99360.94;;;7.73;100.00
4392;BME280;2210;51.938;8.488;2023-03-25T18:59:00;99371.06;;;7.73;100.00
4392;BME280;2210;51.938;8.488;2023-03-25T19:03:01;99371.66;;;7.75;100.00
4392;BME280;2210;51.938;8.488;2023-03-25T19:07:02;99375.72;;;7.72;100.00
4392;BME280;2210;51.938;8.488;2023-03-25T19:11:06;99380.72;;;7.75;100.00
4392;BME280;2210;51.938;8.488;2023-03-25T19:15:07;99388.38;;;7.73;100.00
4392;BME280;2210;51.938;8.488;2023-03-25T19:19:07;99383.75;;;7.62;100.00
4392;BME280;2210;51.938;8.488;2023-03-25T19:23:10;99394.84;;;7.67;100.00
4392;BME280;2210;51.938;8.488;2023-03-25T19:27:10;99394.94;;;7.72;100.00
4392;BME280;2210;51.938;8.488;2023-03-25T19:31:12;99388.28;;;7.68;100.00
4392;BME280;2210;51.938;8.488;2023-03-25T19:35:17;99402.78;;;7.52;100.00
4392;BME280;2210;51.938;8.488;2023-03-25T19:39:20;99393.72;;;7.51;100.00
4392;BME280;2210;51.938;8.488;2023-03-25T19:43:24;99396.69;;;7.50;100.00
4392;BME280;2210;51.938;8.488;2023-03-25T19:47:25;99416.25;;;7.53;100.00
4392;BME280;2210;51.938;8.488;2023-03-25T19:51:25;99414.84;;;7.51;100.00
4392;BME280;2210;51.938;8.488;2023-03-25T19:55:26;99407.19;;;7.53;100.00
4392;BME280;2210;51.938;8.488;2023-03-25T19:59:26;99412.34;;;7.49;100.00
4392;BME280;2210;51.938;8.488;2023-03-25T20:03:29;99404.59;;;7.46;100.00
4392;BME280;2210;51.938;8.488;2023-03-25T20:07:31;99406.47;;;7.57;100.00
4392;BME280;2210;51.938;8.488;2023-03-25T20:11:31;99405.63;;;7.57;100.00
4392;BME280;2210;51.938;8.488;2023-03-25T20:15:32;99408.13;;;7.58;100.00
4392;BME280;2210;51.938;8.488;2023-03-25T20:19:32;99405.84;;;7.55;100.00
4392;BME280;2210;51.938;8.488;2023-03-25T20:23:32;99405.53;;;7.52;100.00
4392;BME280;2210;51.938;8.488;2023-03-25T20:27:33;99407.28;;;7.58;100.00
4392;BME280;2210;51.938;8.488;2023-03-25T20:31:37;99407.09;;;7.48;100.00
4392;BME280;2210;51.938;8.488;2023-03-25T20:35:37;99414.22;;;7.49;100.00
4392;BME280;2210;51.938;8.488;2023-03-25T20:39:37;99406.59;;;7.51;100.00
4392;BME280;2210;51.938;8.488;2023-03-25T20:43:45;99413.53;;;7.41;100.00
4392;BME280;2210;51.938;8.488;2023-03-25T20:47:45;99414.84;;;7.51;100.00
4392;BME280;2210;51.938;8.488;2023-03-25T20:51:46;99420.69;;;7.42;100.00
4392;BME280;2210;51.938;8.488;2023-03-25T20:55:47;99412.47;;;7.42;100.00
4392;BME280;2210;51.938;8.488;2023-03-25T20:59:53;99422.38;;;7.43;100.00
4392;BME280;2210;51.938;8.488;2023-03-25T21:03:55;99430.09;;;7.47;100.00
4392;BME280;2210;51.938;8.488;2023-03-25T21:07:57;99431.53;;;7.49;100.00
4392;BME280;2210;51.938;8.488;2023-03-25T21:11:57;99432.34;;;7.50;100.00
4392;BME280;2210;51.938;8.488;2023-03-25T21:16:01;99447.13;;;7.49;100.00
4392;BME280;2210;51.938;8.488;2023-03-25T21:20:01;99454.44;;;7.43;100.00
4392;BME280;2210;51.938;8.488;2023-03-25T21:24:05;99446.09;;;7.38;100.00
4392;BME280;2210;51.938;8.488;2023-03-25T21:28:05;99457.16;;;7.43;100.00
4392;BME280;2210;51.938;8.488;2023-03-25T21:32:09;99448.47;;;7.46;100.00
4392;BME280;2210;51.938;8.488;2023-03-25T21:36:11;99455.38;;;7.49;100.00
4392;BME280;2210;51.938;8.488;2023-03-25T21:49:10;99464.88;;;7.58;100.00
4392;BME280;2210;51.938;8.488;2023-03-25T21:53:14;99464.63;;;7.59;100.00
4392;BME280;2210;51.938;8.488;2023-03-25T21:57:18;99467.22;;;7.66;100.00
4392;BME280;2210;51.938;8.488;2023-03-25T22:01:24;99475.00;;;7.69;100.00
4392;BME280;2210;51.938;8.488;2023-03-25T22:05:30;99480.13;;;7.66;100.00
4392;BME280;2210;51.938;8.488;2023-03-25T22:09:33;99483.47;;;7.68;100.00
4392;BME280;2210;51.938;8.488;2023-03-25T22:13:37;99479.63;;;7.69;100.00
4392;BME280;2210;51.938;8.488;2023-03-25T22:17:37;99488.22;;;7.72;100.00
4392;BME280;2210;51.938;8.488;2023-03-25T22:21:37;99488.78;;;7.74;100.00
4392;BME280;2210;51.938;8.488;2023-03-25T22:25:38;99494.38;;;7.80;100.00
4392;BME280;2210;51.938;8.488;2023-03-25T22:29:47;99500.22;;;7.83;100.00
4392;BME280;2210;51.938;8.488;2023-03-25T22:33:48;99491.16;;;7.83;100.00
4392;BME280;2210;51.938;8.488;2023-03-25T22:37:52;99487.94;;;7.86;100.00
4392;BME280;2210;51.938;8.488;2023-03-25T22:41:54;99497.84;;;7.87;100.00
4392;BME280;2210;51.938;8.488;2023-03-25T22:46:03;99500.06;;;7.90;100.00
4392;BME280;2210;51.938;8.488;2023-03-25T22:50:05;99497.91;;;7.92;100.00
4392;BME280;2210;51.938;8.488;2023-03-25T22:54:06;99508.88;;;7.92;100.00
4392;BME280;2210;51.938;8.488;2023-03-25T22:58:08;99515.06;;;7.99;100.00
4392;BME280;2210;51.938;8.488;2023-03-25T23:02:12;99523.88;;;8.01;100.00
4392;BME280;2210;51.938;8.488;2023-03-25T23:06:14;99528.81;;;7.99;100.00
4392;BME280;2210;51.938;8.488;2023-03-25T23:10:15;99531.03;;;8.02;100.00
4392;BME280;2210;51.938;8.488;2023-03-25T23:14:17;99526.13;;;8.04;100.00
4392;BME280;2210;51.938;8.488;2023-03-25T23:18:18;99526.97;;;8.05;100.00
4392;BME280;2210;51.938;8.488;2023-03-25T23:22:19;99523.38;;;8.04;100.00
4392;BME280;2210;51.938;8.488;2023-03-25T23:26:22;99524.00;;;8.06;100.00
4392;BME280;2210;51.938;8.488;2023-03-25T23:30:26;99516.00;;;8.05;100.00
4392;BME280;2210;51.938;8.488;2023-03-25T23:34:29;99508.59;;;8.05;100.00
4392;BME280;2210;51.938;8.488;2023-03-25T23:38:31;99516.34;;;8.08;100.00
4392;BME280;2210;51.938;8.488;2023-03-25T23:42:31;99525.66;;;8.07;100.00
4392;BME280;2210;51.938;8.488;2023-03-25T23:46:35;99526.84;;;8.12;100.00
4392;BME280;2210;51.938;8.488;2023-03-25T23:50:35;99524.09;;;8.12;100.00
4392;BME280;2210;51.938;8.488;2023-03-25T23:54:36;99521.84;;;8.08;100.00
4392;BME280;2210;51.938;8.488;2023-03-25T23:58:37;99527.34;;;8.08;100.00
